Time;durP1;ratioP1;P1;durP2;ratioP2;P2;SDS_P1;SDS_P2;PMS_P1;PMS_P2;Temp;Humidity;BMP_temperature;BMP_pressure;BME280_temperature;BME280_humidity;BME280_pressure;Samples;Min_cycle;Max_cycle;Signal;HPM_P1;HPM_P2
2021/12/29 00:08:19;;;;;;;0.20;0.10;;;14.80;99.90;;;;;;20793904;28;20244;-74
2021/12/29 00:18:25;;;;;;;0.20;0.10;;;14.90;99.90;;;;;;20836807;28;20209;-72
2021/12/29 00:28:29;;;;;;;0.20;0.10;;;14.70;99.90;;;;;;20835498;28;20230;-74
2021/12/29 00:38:34;;;;;;;0.20;0.10;;;14.50;99.90;;;;;;20835347;28;20210;-73
2021/12/29 00:48:41;;;;;;;0.20;0.10;;;14.60;99.90;;;;;;20835725;28;20232;-74
2021/12/29 00:58:50;;;;;;;0.20;0.10;;;14.60;99.90;;;;;;20835626;28;20198;-73
2021/12/29 01:08:54;;;;;;;0.20;0.03;;;15.50;99.90;;;;;;20832987;28;20348;-72
2021/12/29 01:18:59;;;;;;;0.20;0.20;;;15.10;99.90;;;;;;20834391;28;20285;-73
2021/12/29 01:29:03;;;;;;;0.20;0.10;;;14.90;99.90;;;;;;20832654;28;20226;-72
2021/12/29 01:39:10;;;;;;;0.20;0.10;;;14.80;99.90;;;;;;20831924;28;20198;-73
2021/12/29 01:49:14;;;;;;;0.20;0.03;;;15.00;99.90;;;;;;20831670;28;20195;-74
2021/12/29 01:59:20;;;;;;;0.20;0.00;;;15.00;99.90;;;;;;20830077;28;20248;-74
2021/12/29 02:09:25;;;;;;;0.20;0.10;;;14.90;99.90;;;;;;20829378;28;20218;-73
2021/12/29 02:19:31;;;;;;;0.20;0.00;;;14.70;99.90;;;;;;20828321;28;20277;-73
2021/12/29 02:29:37;;;;;;;0.20;0.10;;;14.50;99.90;;;;;;20772542;28;20221;-74
2021/12/29 02:39:41;;;;;;;0.20;0.10;;;14.40;99.90;;;;;;20806215;28;20260;-73
2021/12/29 02:49:46;;;;;;;0.20;0.10;;;14.40;99.90;;;;;;20818341;28;20237;-74
2021/12/29 02:59:50;;;;;;;0.20;0.10;;;14.50;99.90;;;;;;20745307;28;20301;-73
2021/12/29 03:09:55;;;;;;;0.20;0.00;;;14.60;99.90;;;;;;20591870;28;20611;-74
2021/12/29 03:19:59;;;;;;;0.20;0.10;;;14.50;99.90;;;;;;20662470;28;20251;-74
2021/12/29 03:30:05;;;;;;;0.20;0.00;;;14.30;99.90;;;;;;20669221;28;20207;-72
2021/12/29 03:40:10;;;;;;;0.20;0.10;;;14.70;99.90;;;;;;20678384;28;20219;-72
2021/12/29 03:50:15;;;;;;;0.20;0.10;;;14.50;99.90;;;;;;20677012;28;20210;-73
2021/12/29 04:00:20;;;;;;;0.20;0.10;;;14.30;99.90;;;;;;20677443;28;20256;-73
2021/12/29 04:10:26;;;;;;;0.20;0.10;;;14.00;99.90;;;;;;20838236;28;20229;-73
2021/12/29 04:20:57;;;;;;;0.20;0.10;;;13.60;99.90;;;;;;20838393;28;20590;-74
2021/12/29 04:31:07;;;;;;;0.20;0.10;;;13.70;99.90;;;;;;20837944;28;20198;-74
2021/12/29 04:41:11;;;;;;;0.20;0.10;;;13.50;99.90;;;;;;20834801;28;20308;-74
2021/12/29 04:51:22;;;;;;;0.20;0.10;;;13.10;99.90;;;;;;20836470;28;20202;-75
2021/12/29 05:01:26;;;;;;;0.20;0.10;;;13.00;99.90;;;;;;20848996;22;20328;-75
2021/12/29 05:11:31;;;;;;;0.20;0.10;;;13.10;99.90;;;;;;20813947;28;20597;-75
2021/12/29 05:21:35;;;;;;;0.20;0.10;;;13.00;99.90;;;;;;20753172;28;20223;-73
2021/12/29 05:31:40;;;;;;;0.20;0.10;;;13.10;99.90;;;;;;20752943;28;20226;-73
2021/12/29 05:41:44;;;;;;;0.20;0.00;;;13.10;99.90;;;;;;20751486;28;20240;-73
2021/12/29 05:51:49;;;;;;;0.20;0.10;;;13.80;99.90;;;;;;20810339;28;20285;-76
2021/12/29 06:01:52;;;;;;;0.20;0.00;;;14.30;99.90;;;;;;20775203;28;20273;-74
2021/12/29 06:11:57;;;;;;;0.20;0.10;;;14.50;99.90;;;;;;20817250;28;20604;-76
2021/12/29 06:22:01;;;;;;;0.20;0.10;;;14.60;99.90;;;;;;20831941;28;20278;-77
2021/12/29 06:32:07;;;;;;;0.20;0.10;;;13.80;99.90;;;;;;20831331;28;20207;-76
2021/12/29 06:42:11;;;;;;;0.20;0.10;;;13.30;99.90;;;;;;20828155;28;20320;-74
2021/12/29 06:52:16;;;;;;;0.20;0.10;;;13.40;99.90;;;;;;20834079;28;20204;-75
2021/12/29 07:02:20;;;;;;;0.20;0.00;;;13.70;99.90;;;;;;20813766;28;20316;-76
2021/12/29 07:12:26;;;;;;;0.20;0.10;;;13.60;99.90;;;;;;20835518;28;20198;-76
2021/12/29 07:22:29;;;;;;;0.20;0.10;;;13.70;99.90;;;;;;20828789;28;20304;-75
2021/12/29 07:32:35;;;;;;;0.20;0.10;;;13.40;99.90;;;;;;20808980;28;20293;-75
2021/12/29 07:42:41;;;;;;;0.20;0.10;;;13.40;99.90;;;;;;20825714;28;20243;-75
2021/12/29 07:52:48;;;;;;;0.20;0.10;;;13.70;99.90;;;;;;20772446;28;20687;-74
2021/12/29 08:02:52;;;;;;;0.20;0.10;;;13.80;99.90;;;;;;20742302;28;20767;-76
2021/12/29 08:12:57;;;;;;;0.20;0.10;;;13.90;99.90;;;;;;20765605;28;20703;-76
2021/12/29 08:23:01;;;;;;;0.20;0.10;;;14.10;99.90;;;;;;20767357;28;20309;-74
2021/12/29 08:33:06;;;;;;;0.20;0.10;;;14.40;99.90;;;;;;20796505;28;20206;-75
2021/12/29 08:43:11;;;;;;;0.20;0.10;;;14.60;99.90;;;;;;20806651;28;20249;-76
2021/12/29 08:53:18;;;;;;;0.20;0.10;;;14.80;99.90;;;;;;20840158;28;20312;-76
2021/12/29 09:03:22;;;;;;;0.20;0.10;;;14.80;99.90;;;;;;20868181;28;20234;-75
2021/12/29 09:13:27;;;;;;;0.20;0.03;;;14.80;99.90;;;;;;20863705;28;20540;-74
2021/12/29 09:23:32;;;;;;;0.20;0.00;;;15.10;99.90;;;;;;20808974;28;20272;-76
2021/12/29 09:33:38;;;;;;;0.20;0.10;;;15.20;99.90;;;;;;20796230;28;20270;-74
2021/12/29 09:43:43;;;;;;;0.20;0.10;;;15.40;99.90;;;;;;20787949;28;20226;-76
2021/12/29 09:53:50;;;;;;;0.20;0.20;;;15.50;99.90;;;;;;20783836;28;20202;-75
2021/12/29 10:03:54;;;;;;;0.20;0.10;;;15.90;99.90;;;;;;20831393;28;20234;-76
2021/12/29 10:13:59;;;;;;;0.20;0.10;;;16.50;99.90;;;;;;20833763;28;20202;-79
2021/12/29 10:24:04;;;;;;;0.20;0.10;;;17.60;99.90;;;;;;20833200;28;20691;-81
2021/12/29 10:34:18;;;;;;;0.20;0.10;;;17.90;99.90;;;;;;20833326;28;20205;-79
2021/12/29 10:44:33;;;;;;;0.20;0.00;;;19.30;99.90;;;;;;20834896;28;20295;-84
2021/12/29 10:54:39;;;;;;;0.20;0.10;;;20.20;99.90;;;;;;20763566;28;20208;-80
2021/12/29 11:04:43;;;;;;;2.07;1.97;;;20.40;99.90;;;;;;20838697;28;20261;-79
2021/12/29 11:14:53;;;;;;;0.20;0.10;;;20.40;99.90;;;;;;20744868;28;20229;-83
2021/12/29 11:24:59;;;;;;;0.20;0.10;;;19.60;99.90;;;;;;20808492;28;20310;-81
2021/12/29 11:35:12;;;;;;;0.20;0.10;;;19.00;99.90;;;;;;20812768;28;20717;-83
2021/12/29 11:45:17;;;;;;;0.20;0.10;;;20.80;99.90;;;;;;20797395;28;20613;-84
2021/12/29 11:55:31;;;;;;;0.20;0.00;;;21.90;99.90;;;;;;20830834;28;20252;-80
2021/12/29 12:05:37;;;;;;;0.20;0.10;;;21.10;99.90;;;;;;20796985;28;20719;-77
2021/12/29 12:15:42;;;;;;;0.20;0.00;;;19.70;99.90;;;;;;20828722;28;20198;-82
2021/12/29 12:25:52;;;;;;;0.20;0.00;;;20.10;99.90;;;;;;20827101;28;20286;-82
2021/12/29 12:36:08;;;;;;;0.28;0.28;;;22.30;99.90;;;;;;20778997;28;20630;-82
2021/12/29 12:46:11;;;;;;;0.20;0.15;;;23.00;99.90;;;;;;20829241;28;20226;-81
2021/12/29 12:56:20;;;;;;;4.38;3.08;;;23.50;99.90;;;;;;20855625;28;20819;-80
2021/12/29 13:06:36;;;;;;;0.20;0.00;;;23.30;99.90;;;;;;20877056;28;20339;-77
2021/12/29 13:16:41;;;;;;;0.20;0.00;;;22.80;99.90;;;;;;20816931;28;20198;-84
2021/12/29 13:26:48;;;;;;;0.20;0.10;;;23.00;99.90;;;;;;20813357;28;20290;-85
2021/12/29 13:36:53;;;;;;;0.20;0.00;;;22.70;99.90;;;;;;20789611;28;20206;-83
2021/12/29 13:46:56;;;;;;;0.20;0.00;;;22.20;99.90;;;;;;20826711;28;20232;-84
2021/12/29 13:57:01;;;;;;;0.20;0.10;;;22.60;99.90;;;;;;20834604;28;20198;-85
2021/12/29 14:07:07;;;;;;;0.20;0.00;;;24.10;99.90;;;;;;20852380;28;20241;-86
2021/12/29 14:17:18;;;;;;;0.20;0.08;;;23.40;99.90;;;;;;20830753;28;20201;-84
2021/12/29 14:27:24;;;;;;;0.20;0.10;;;24.20;99.90;;;;;;20863002;28;20320;-84
2021/12/29 14:37:29;;;;;;;0.20;0.00;;;24.20;99.90;;;;;;20856473;28;20282;-85
2021/12/29 14:47:37;;;;;;;0.20;0.00;;;24.50;99.90;;;;;;20846093;28;20584;-82
2021/12/29 14:57:44;;;;;;;0.20;0.00;;;22.70;99.90;;;;;;20812942;28;20201;-85
2021/12/29 15:07:51;;;;;;;0.20;0.10;;;22.10;99.90;;;;;;20841211;28;20234;-84
2021/12/29 15:18:01;;;;;;;0.20;0.00;;;22.00;99.90;;;;;;20750955;28;20201;-81
2021/12/29 15:28:08;;;;;;;0.20;0.10;;;20.90;99.90;;;;;;20757832;28;20228;-80
2021/12/29 15:38:13;;;;;;;0.20;0.00;;;19.80;99.90;;;;;;20765120;28;20194;-82
2021/12/29 15:48:17;;;;;;;0.20;0.00;;;18.90;99.90;;;;;;20835031;28;20221;-81
2021/12/29 15:58:23;;;;;;;0.20;0.00;;;20.40;99.90;;;;;;20840957;28;20221;-76
2021/12/29 16:08:27;;;;;;;0.20;0.10;;;19.20;99.90;;;;;;20753883;28;20222;-78
2021/12/29 16:18:33;;;;;;;0.20;0.00;;;18.20;99.90;;;;;;20744801;28;20222;-75
2021/12/29 16:28:39;;;;;;;0.20;0.10;;;17.70;99.90;;;;;;20744049;28;20225;-78
2021/12/29 16:38:44;;;;;;;0.20;0.00;;;17.70;99.90;;;;;;20758579;28;20222;-75
2021/12/29 16:48:48;;;;;;;0.20;0.10;;;16.90;99.90;;;;;;20753448;28;20254;-73
2021/12/29 16:58:53;;;;;;;0.20;0.10;;;16.50;99.90;;;;;;20753071;28;20206;-75
2021/12/29 17:09:02;;;;;;;0.20;0.10;;;16.10;99.90;;;;;;20684015;28;20289;-75
2021/12/29 17:19:07;;;;;;;1.43;1.37;;;15.80;99.90;;;;;;20749358;28;20226;-74
2021/12/29 17:29:12;;;;;;;0.20;0.10;;;15.50;99.90;;;;;;20750335;28;20274;-72
2021/12/29 17:39:17;;;;;;;0.20;0.00;;;15.70;99.90;;;;;;20754755;28;20237;-76
2021/12/29 17:49:21;;;;;;;0.20;0.10;;;15.90;99.90;;;;;;20746865;28;20219;-75
2021/12/29 17:59:26;;;;;;;0.20;0.10;;;17.30;99.90;;;;;;20748036;28;20653;-75
2021/12/29 18:09:31;;;;;;;0.30;0.30;;;17.50;99.90;;;;;;20827451;28;20298;-74
2021/12/29 18:19:37;;;;;;;0.20;0.10;;;17.50;99.90;;;;;;20862400;28;20663;-75
2021/12/29 18:29:41;;;;;;;0.20;0.10;;;17.50;99.90;;;;;;20828191;28;20296;-74
2021/12/29 18:39:47;;;;;;;0.20;0.10;;;17.50;99.90;;;;;;20849442;28;20345;-74
2021/12/29 18:49:52;;;;;;;0.20;0.00;;;17.20;99.90;;;;;;20832086;28;20317;-74
2021/12/29 18:59:58;;;;;;;0.20;0.10;;;17.10;99.90;;;;;;20798323;28;20186;-72
2021/12/29 19:10:02;;;;;;;0.20;0.10;;;17.00;99.90;;;;;;20800819;28;20225;-74
2021/12/29 19:20:11;;;;;;;0.20;0.10;;;16.80;99.90;;;;;;20747541;28;20191;-73
2021/12/29 19:30:18;;;;;;;0.20;0.00;;;16.70;99.90;;;;;;20801471;28;20578;-72
2021/12/29 19:40:26;;;;;;;0.20;0.10;;;16.70;99.90;;;;;;20810221;28;20198;-72
2021/12/29 19:50:33;;;;;;;0.20;0.10;;;16.80;99.90;;;;;;20796414;28;20222;-73
2021/12/29 20:00:41;;;;;;;0.20;0.10;;;16.90;99.90;;;;;;20798507;28;20316;-72
2021/12/29 20:10:47;;;;;;;0.20;0.10;;;17.10;99.90;;;;;;20817856;28;20225;-72
2021/12/29 20:20:54;;;;;;;0.20;0.00;;;17.00;99.90;;;;;;20812160;28;20199;-73
2021/12/29 20:30:59;;;;;;;0.20;0.00;;;17.10;99.90;;;;;;20848378;28;20233;-73
2021/12/29 20:41:04;;;;;;;0.20;0.10;;;17.20;99.90;;;;;;20845641;28;20193;-74
2021/12/29 20:51:08;;;;;;;0.20;0.00;;;17.00;99.90;;;;;;20810326;28;20320;-73
2021/12/29 21:01:17;;;;;;;0.20;0.10;;;16.90;99.90;;;;;;20846223;28;20218;-72
2021/12/29 21:11:23;;;;;;;0.20;0.10;;;16.60;99.90;;;;;;20803782;28;20703;-70
2021/12/29 21:21:30;;;;;;;0.20;0.10;;;16.00;99.90;;;;;;20812460;28;20229;-73
2021/12/29 21:31:35;;;;;;;0.20;0.10;;;16.10;99.90;;;;;;20835627;28;20648;-73
2021/12/29 21:41:41;;;;;;;0.20;0.00;;;15.50;99.90;;;;;;20818051;28;20533;-73
2021/12/29 21:51:45;;;;;;;0.20;0.00;;;15.10;99.90;;;;;;20830336;28;20687;-73
2021/12/29 22:01:50;;;;;;;0.20;0.00;;;14.80;99.90;;;;;;20828514;28;20226;-75
2021/12/29 22:11:54;;;;;;;0.20;0.10;;;14.00;99.90;;;;;;20830697;28;20218;-75
2021/12/29 22:21:59;;;;;;;0.20;0.10;;;14.00;99.90;;;;;;20829727;28;20527;-73
2021/12/29 22:32:05;;;;;;;0.20;0.00;;;13.40;99.90;;;;;;20809013;28;20222;-74
2021/12/29 22:42:10;;;;;;;0.20;0.10;;;13.30;99.90;;;;;;20825867;28;20567;-73
2021/12/29 22:52:15;;;;;;;0.60;0.60;;;13.00;99.90;;;;;;20824768;28;20722;-72
2021/12/29 23:02:20;;;;;;;0.20;0.10;;;12.90;99.90;;;;;;20823694;28;20233;-74
2021/12/29 23:12:24;;;;;;;0.20;0.00;;;13.20;99.90;;;;;;20803308;28;20225;-72
2021/12/29 23:22:34;;;;;;;0.20;0.00;;;14.00;99.90;;;;;;20824159;28;20206;-73
2021/12/29 23:32:37;;;;;;;0.20;0.10;;;14.70;99.90;;;;;;20823982;28;20222;-73
2021/12/29 23:42:42;;;;;;;0.20;0.00;;;15.10;99.90;;;;;;20806812;28;20224;-73
2021/12/29 23:52:46;;;;;;;0.20;0.00;;;15.20;99.90;;;;;;20852378;28;20238;-73
